KNJK

El Centro Naf Airport

El Centro, California, USA
METAR KNJK 182056Z VRB05KT 10SM FEW080 FEW250 41/15 A2985 RMK AO2 SLP123 T04110150 58024
Observed Flight Rules
Aug-18 @ 20:56 UTC (59 minutes ago) Visual Flight Rules
Wind Visibility Clouds
Variable at 5 knots 10 miles
  • Few at 8,000' AGL
  • Few at 25,000' AGL
Temperatures Readings
Current 41°C / 106°F
Dewpoint 15°C / 59°F
Humidity 22%
Altimeter 29.85" Hg
Pressure 1012.3 hPa
Elevation -13
METAR KNJK 182056Z VRB05KT 10SM FEW080 FEW250 41/15 A2985 RMK AO2 SLP123 T04110150 58024
Observed Flight Rules
Aug-18 @ 20:56 UTC
(59 minutes ago)
VFR
Wind Visibility
Variable at 5 knots 10 miles
Clouds
  • Few at 8,000' AGL
  • Few at 25,000' AGL
Temperature Dewpoint
41°C / 106°F 15°C / 59°F
Humidity Altimeter Pressure
22% 29.85" Hg 1012.3 hPa